Decoded Metar for UUOB (BELGOROD in RUSSIA) (IATA:N/A) | Meteo·Mobile Aviation Weather
aviador You're here:

UUOB Decoded Metar

BELGOROD in RUSSIA
Report Time2019-02-22 21:00:00
UTC Time2019-02-22 21:14:51
Flight Rules vfr VFR
Wind010° at 6 kt
W.Decomp.*RWY 29: 1.9 kt HW 5.7 kt RCW
W.Rank010° ranks 27
Current wind is below 010° avg. (7.4)
Visibility9999 m
Phenomena:Light Shower Snow
Clouds:Broken CB 039 Hf
Expected CloudBase > 1,600 ft AGL from Temp-Dew spread
Ceiling3,900 ft
Temp-8°C (ISA -22)
Dew Point-12°C (73% RH)
AAT-13.4°C
QNH1023 hPa
Density Alt-2,247 ft
Elevation735 ft
Report Wrong Elevation
Raw Report
METAR UUOB 222100Z 01003MPS 9999 -SHSN BKN039CB M08/M12 Q1023
R29/810550 NOSIG=

Extra information for UUOB:More info

Metar Taf Metar & Taf Last 4 Metars F.Rules Stats Wind Profile Meteogram Temp Stats Airport Information Weather charts Add Link Nearby VenuesMetar ALERT Operation Metar Decoded Social comments